Kohat, Pakistan
Current Conditions -  °F | °C
As of 10:00 PM on Saturday 25 Oct 2014 (Local Time) from OPPS Reporting Station
Haze Haze  
Wind Chill: 68°   Ceiling: Unl
Heat Index: 68°   Visibility: 2.5mi
Dew Point: 59°   Wind: 0mph
Humidity: 73%   Direction: NA
Pressure: NA   Gusts: NA
Location:  33.6°N, 71.44°E
Report Text: OPPS 251700Z 00000KT 4000 HZ FEW100 20/15 Q1015.0
Loading
Personal Weather Stations






























Interactive Weather Map
Tropical Storm Tracking
New forecast layout! Learn more

10-Day Weather Forecast

Advertisements
Track Severe Weather on mobile